Eunice, Louisiana
Current Conditions -  °F | °C
As of 12:55 AM on Monday 22 Dec 2014 (Local Time) from KOPL Reporting Station
Moderate Fog Moderate Fog  
Wind Chill: 48°   Ceiling: 200
Heat Index: 48°   Visibility: 0.5mi
Dew Point: 47°   Wind: 0mph
Humidity: 99%   Direction: NA
Pressure: 29.9"   Gusts: NA
Location:  30.49°N, 92.41°W
Report Text: KOPL 220655Z AUTO 00000KT 1/2SM FG OVC002 09/09 A2990 RMK AO2 T00870085
Loading
Personal Weather Stations






























Interactive Weather Map New forecast layout! Learn more

10-Day Weather Forecast

Advertisements
Track Severe Weather on mobile